sensor_id;sensor_type;location;lat;lon;timestamp;P1;durP1;ratioP1;P2;durP2;ratioP2
22713;SDS011;11524;50.846;4.326;2023-03-01T00:00:26;5.35;;;2.83;;
22713;SDS011;11524;50.846;4.326;2023-03-01T00:02:52;4.00;;;2.67;;
22713;SDS011;11524;50.846;4.326;2023-03-01T00:05:18;3.38;;;2.47;;
22713;SDS011;11524;50.846;4.326;2023-03-01T00:07:43;4.88;;;2.53;;
22713;SDS011;11524;50.846;4.326;2023-03-01T00:10:09;3.05;;;2.33;;
22713;SDS011;11524;50.846;4.326;2023-03-01T00:12:35;3.80;;;2.30;;
22713;SDS011;11524;50.846;4.326;2023-03-01T00:15:01;4.68;;;2.40;;
22713;SDS011;11524;50.846;4.326;2023-03-01T00:17:27;5.10;;;2.58;;
22713;SDS011;11524;50.846;4.326;2023-03-01T00:19:53;3.38;;;2.15;;
22713;SDS011;11524;50.846;4.326;2023-03-01T00:22:19;4.55;;;2.45;;
22713;SDS011;11524;50.846;4.326;2023-03-01T00:24:44;4.65;;;2.45;;
22713;SDS011;11524;50.846;4.326;2023-03-01T00:27:10;3.65;;;2.33;;
22713;SDS011;11524;50.846;4.326;2023-03-01T00:29:35;5.18;;;2.45;;
22713;SDS011;11524;50.846;4.326;2023-03-01T00:32:01;3.85;;;2.63;;
22713;SDS011;11524;50.846;4.326;2023-03-01T00:34:27;3.88;;;2.42;;
22713;SDS011;11524;50.846;4.326;2023-03-01T00:36:52;3.58;;;2.45;;
22713;SDS011;11524;50.846;4.326;2023-03-01T00:39:18;4.20;;;2.22;;
22713;SDS011;11524;50.846;4.326;2023-03-01T00:41:43;4.20;;;2.25;;
22713;SDS011;11524;50.846;4.326;2023-03-01T00:44:09;4.10;;;2.50;;
22713;SDS011;11524;50.846;4.326;2023-03-01T00:46:35;4.10;;;2.53;;
22713;SDS011;11524;50.846;4.326;2023-03-01T00:49:01;4.22;;;2.25;;
22713;SDS011;11524;50.846;4.326;2023-03-01T00:51:27;4.18;;;2.47;;
22713;SDS011;11524;50.846;4.326;2023-03-01T00:53:54;4.32;;;2.22;;
22713;SDS011;11524;50.846;4.326;2023-03-01T00:56:22;4.78;;;2.47;;
22713;SDS011;11524;50.846;4.326;2023-03-01T00:58:48;5.47;;;2.63;;
22713;SDS011;11524;50.846;4.326;2023-03-01T01:01:15;4.35;;;2.28;;
22713;SDS011;11524;50.846;4.326;2023-03-01T01:03:49;4.13;;;2.60;;
22713;SDS011;11524;50.846;4.326;2023-03-01T01:06:21;4.45;;;2.30;;
22713;SDS011;11524;50.846;4.326;2023-03-01T01:08:50;3.67;;;2.40;;
22713;SDS011;11524;50.846;4.326;2023-03-01T01:11:17;3.00;;;2.35;;
22713;SDS011;11524;50.846;4.326;2023-03-01T01:13:43;4.63;;;2.45;;
22713;SDS011;11524;50.846;4.326;2023-03-01T01:16:10;3.45;;;2.20;;
22713;SDS011;11524;50.846;4.326;2023-03-01T01:18:37;4.53;;;2.63;;
22713;SDS011;11524;50.846;4.326;2023-03-01T01:21:03;3.47;;;2.30;;
22713;SDS011;11524;50.846;4.326;2023-03-01T01:23:31;4.22;;;2.20;;
22713;SDS011;11524;50.846;4.326;2023-03-01T01:25:56;3.72;;;2.38;;
22713;SDS011;11524;50.846;4.326;2023-03-01T01:28:22;4.00;;;2.22;;
22713;SDS011;11524;50.846;4.326;2023-03-01T01:30:47;3.78;;;2.30;;
22713;SDS011;11524;50.846;4.326;2023-03-01T01:33:13;3.63;;;2.15;;
22713;SDS011;11524;50.846;4.326;2023-03-01T01:35:38;4.30;;;2.28;;
22713;SDS011;11524;50.846;4.326;2023-03-01T01:38:04;2.70;;;1.95;;
22713;SDS011;11524;50.846;4.326;2023-03-01T01:40:29;4.15;;;2.70;;
22713;SDS011;11524;50.846;4.326;2023-03-01T01:42:55;5.47;;;2.30;;
22713;SDS011;11524;50.846;4.326;2023-03-01T01:45:26;4.03;;;2.15;;
22713;SDS011;11524;50.846;4.326;2023-03-01T01:48:01;2.78;;;2.13;;
22713;SDS011;11524;50.846;4.326;2023-03-01T01:50:31;3.55;;;2.05;;
22713;SDS011;11524;50.846;4.326;2023-03-01T01:53:03;3.10;;;1.75;;
22713;SDS011;11524;50.846;4.326;2023-03-01T01:55:47;3.03;;;2.15;;
22713;SDS011;11524;50.846;4.326;2023-03-01T02:00:43;2.95;;;2.15;;
22713;SDS011;11524;50.846;4.326;2023-03-01T02:03:10;3.45;;;2.17;;
22713;SDS011;11524;50.846;4.326;2023-03-01T02:08:31;3.65;;;2.33;;
22713;SDS011;11524;50.846;4.326;2023-03-01T02:11:01;3.20;;;2.20;;
22713;SDS011;11524;50.846;4.326;2023-03-01T02:13:29;3.08;;;2.28;;
22713;SDS011;11524;50.846;4.326;2023-03-01T02:15:56;3.65;;;2.28;;
22713;SDS011;11524;50.846;4.326;2023-03-01T02:18:22;3.58;;;2.40;;
22713;SDS011;11524;50.846;4.326;2023-03-01T02:24:32;3.88;;;2.20;;
22713;SDS011;11524;50.846;4.326;2023-03-01T02:27:05;3.67;;;2.22;;
22713;SDS011;11524;50.846;4.326;2023-03-01T02:29:31;2.80;;;2.22;;
22713;SDS011;11524;50.846;4.326;2023-03-01T02:31:58;3.38;;;2.20;;
22713;SDS011;11524;50.846;4.326;2023-03-01T02:34:27;3.90;;;2.20;;
22713;SDS011;11524;50.846;4.326;2023-03-01T02:36:59;4.25;;;2.30;;
22713;SDS011;11524;50.846;4.326;2023-03-01T02:42:33;2.88;;;2.30;;
22713;SDS011;11524;50.846;4.326;2023-03-01T02:45:05;3.25;;;2.25;;
22713;SDS011;11524;50.846;4.326;2023-03-01T02:47:31;4.47;;;2.55;;
22713;SDS011;11524;50.846;4.326;2023-03-01T02:49:57;3.20;;;2.30;;
22713;SDS011;11524;50.846;4.326;2023-03-01T02:55:13;2.80;;;2.28;;
22713;SDS011;11524;50.846;4.326;2023-03-01T02:57:42;3.10;;;2.60;;
22713;SDS011;11524;50.846;4.326;2023-03-01T03:00:11;3.85;;;2.67;;
22713;SDS011;11524;50.846;4.326;2023-03-01T03:02:44;4.47;;;2.70;;
22713;SDS011;11524;50.846;4.326;2023-03-01T03:05:15;3.50;;;2.45;;
22713;SDS011;11524;50.846;4.326;2023-03-01T03:07:43;3.50;;;2.30;;
22713;SDS011;11524;50.846;4.326;2023-03-01T03:10:13;3.00;;;2.30;;
22713;SDS011;11524;50.846;4.326;2023-03-01T03:15:13;3.45;;;2.50;;
22713;SDS011;11524;50.846;4.326;2023-03-01T03:17:40;3.88;;;2.70;;
22713;SDS011;11524;50.846;4.326;2023-03-01T03:20:07;4.70;;;2.70;;
22713;SDS011;11524;50.846;4.326;2023-03-01T03:22:39;2.80;;;2.20;;
22713;SDS011;11524;50.846;4.326;2023-03-01T03:25:06;3.63;;;2.42;;
22713;SDS011;11524;50.846;4.326;2023-03-01T03:27:46;3.80;;;2.38;;
22713;SDS011;11524;50.846;4.326;2023-03-01T03:30:14;2.45;;;2.20;;
22713;SDS011;11524;50.846;4.326;2023-03-01T03:32:42;3.65;;;2.55;;
22713;SDS011;11524;50.846;4.326;2023-03-01T03:35:21;2.85;;;2.25;;
22713;SDS011;11524;50.846;4.326;2023-03-01T03:37:50;3.90;;;2.50;;
22713;SDS011;11524;50.846;4.326;2023-03-01T03:40:38;3.65;;;2.40;;
22713;SDS011;11524;50.846;4.326;2023-03-01T03:43:12;3.65;;;2.40;;
22713;SDS011;11524;50.846;4.326;2023-03-01T03:45:43;2.88;;;2.35;;
22713;SDS011;11524;50.846;4.326;2023-03-01T03:48:10;3.38;;;2.33;;
22713;SDS011;11524;50.846;4.326;2023-03-01T03:50:36;3.05;;;2.30;;
22713;SDS011;11524;50.846;4.326;2023-03-01T03:53:03;3.47;;;2.65;;
22713;SDS011;11524;50.846;4.326;2023-03-01T03:55:31;3.47;;;2.38;;
22713;SDS011;11524;50.846;4.326;2023-03-01T03:57:58;3.33;;;1.85;;
22713;SDS011;11524;50.846;4.326;2023-03-01T04:00:31;2.63;;;2.13;;
22713;SDS011;11524;50.846;4.326;2023-03-01T04:03:02;2.70;;;1.88;;
22713;SDS011;11524;50.846;4.326;2023-03-01T04:05:28;3.47;;;2.55;;
22713;SDS011;11524;50.846;4.326;2023-03-01T04:07:54;2.53;;;1.95;;
22713;SDS011;11524;50.846;4.326;2023-03-01T04:10:26;2.17;;;1.83;;
22713;SDS011;11524;50.846;4.326;2023-03-01T04:12:57;3.15;;;2.05;;
22713;SDS011;11524;50.846;4.326;2023-03-01T04:15:24;2.30;;;1.92;;
22713;SDS011;11524;50.846;4.326;2023-03-01T04:17:51;5.75;;;2.35;;
22713;SDS011;11524;50.846;4.326;2023-03-01T04:20:18;5.90;;;2.15;;
22713;SDS011;11524;50.846;4.326;2023-03-01T04:25:18;2.63;;;2.33;;
22713;SDS011;11524;50.846;4.326;2023-03-01T04:27:44;3.90;;;2.15;;
22713;SDS011;11524;50.846;4.326;2023-03-01T04:30:10;3.28;;;2.53;;
22713;SDS011;11524;50.846;4.326;2023-03-01T04:32:35;2.97;;;1.98;;
22713;SDS011;11524;50.846;4.326;2023-03-01T04:35:01;2.90;;;2.13;;
22713;SDS011;11524;50.846;4.326;2023-03-01T04:37:27;2.90;;;1.92;;
22713;SDS011;11524;50.846;4.326;2023-03-01T04:39:52;3.90;;;2.50;;
22713;SDS011;11524;50.846;4.326;2023-03-01T04:42:18;3.10;;;2.30;;
22713;SDS011;11524;50.846;4.326;2023-03-01T04:44:44;3.00;;;2.10;;
22713;SDS011;11524;50.846;4.326;2023-03-01T04:47:10;3.03;;;2.17;;
22713;SDS011;11524;50.846;4.326;2023-03-01T04:49:36;2.90;;;2.13;;
22713;SDS011;11524;50.846;4.326;2023-03-01T04:52:02;2.60;;;2.13;;
22713;SDS011;11524;50.846;4.326;2023-03-01T04:54:29;3.00;;;2.40;;
22713;SDS011;11524;50.846;4.326;2023-03-01T04:56:59;3.03;;;2.00;;
22713;SDS011;11524;50.846;4.326;2023-03-01T04:59:25;3.78;;;2.50;;
22713;SDS011;11524;50.846;4.326;2023-03-01T05:01:54;6.28;;;2.20;;
22713;SDS011;11524;50.846;4.326;2023-03-01T05:04:21;4.57;;;2.33;;
22713;SDS011;11524;50.846;4.326;2023-03-01T05:06:47;2.97;;;2.10;;
22713;SDS011;11524;50.846;4.326;2023-03-01T05:09:13;3.33;;;2.28;;
22713;SDS011;11524;50.846;4.326;2023-03-01T05:11:38;2.50;;;2.30;;
22713;SDS011;11524;50.846;4.326;2023-03-01T05:14:04;3.50;;;2.50;;
22713;SDS011;11524;50.846;4.326;2023-03-01T05:16:31;4.82;;;2.38;;
22713;SDS011;11524;50.846;4.326;2023-03-01T05:18:58;5.00;;;2.47;;
22713;SDS011;11524;50.846;4.326;2023-03-01T05:21:24;2.50;;;2.20;;
22713;SDS011;11524;50.846;4.326;2023-03-01T05:23:50;2.67;;;2.30;;
22713;SDS011;11524;50.846;4.326;2023-03-01T05:26:17;4.07;;;2.20;;
22713;SDS011;11524;50.846;4.326;2023-03-01T05:28:44;2.92;;;2.10;;
22713;SDS011;11524;50.846;4.326;2023-03-01T05:31:10;5.40;;;2.20;;
22713;SDS011;11524;50.846;4.326;2023-03-01T05:33:39;4.30;;;2.65;;
22713;SDS011;11524;50.846;4.326;2023-03-01T05:36:06;3.08;;;2.05;;
22713;SDS011;11524;50.846;4.326;2023-03-01T05:38:32;3.20;;;2.20;;
22713;SDS011;11524;50.846;4.326;2023-03-01T05:40:59;2.40;;;2.20;;
22713;SDS011;11524;50.846;4.326;2023-03-01T05:43:25;2.97;;;2.00;;
22713;SDS011;11524;50.846;4.326;2023-03-01T05:45:50;3.53;;;2.58;;
22713;SDS011;11524;50.846;4.326;2023-03-01T05:48:16;4.43;;;2.33;;
22713;SDS011;11524;50.846;4.326;2023-03-01T05:50:44;3.42;;;2.70;;
22713;SDS011;11524;50.846;4.326;2023-03-01T05:53:13;3.53;;;2.42;;
22713;SDS011;11524;50.846;4.326;2023-03-01T05:55:39;3.70;;;2.08;;
22713;SDS011;11524;50.846;4.326;2023-03-01T05:58:09;3.92;;;2.17;;
22713;SDS011;11524;50.846;4.326;2023-03-01T06:00:39;2.93;;;2.50;;
22713;SDS011;11524;50.846;4.326;2023-03-01T06:03:05;2.22;;;2.03;;
22713;SDS011;11524;50.846;4.326;2023-03-01T06:05:31;6.28;;;1.92;;
22713;SDS011;11524;50.846;4.326;2023-03-01T06:07:59;3.20;;;2.28;;
22713;SDS011;11524;50.846;4.326;2023-03-01T06:10:25;2.42;;;1.98;;
22713;SDS011;11524;50.846;4.326;2023-03-01T06:12:51;4.00;;;2.15;;
22713;SDS011;11524;50.846;4.326;2023-03-01T06:15:17;2.35;;;1.85;;
22713;SDS011;11524;50.846;4.326;2023-03-01T06:17:43;2.85;;;2.55;;
22713;SDS011;11524;50.846;4.326;2023-03-01T06:20:12;3.00;;;2.30;;
22713;SDS011;11524;50.846;4.326;2023-03-01T06:22:43;3.40;;;2.30;;
22713;SDS011;11524;50.846;4.326;2023-03-01T06:25:09;4.22;;;2.10;;
22713;SDS011;11524;50.846;4.326;2023-03-01T06:27:37;3.20;;;2.40;;
22713;SDS011;11524;50.846;4.326;2023-03-01T06:30:03;5.00;;;2.58;;
22713;SDS011;11524;50.846;4.326;2023-03-01T06:32:29;3.30;;;2.10;;
22713;SDS011;11524;50.846;4.326;2023-03-01T06:34:55;3.35;;;2.05;;
22713;SDS011;11524;50.846;4.326;2023-03-01T06:37:21;7.05;;;3.25;;
22713;SDS011;11524;50.846;4.326;2023-03-01T06:39:47;11.68;;;3.20;;
22713;SDS011;11524;50.846;4.326;2023-03-01T06:42:13;5.90;;;2.70;;
22713;SDS011;11524;50.846;4.326;2023-03-01T06:44:39;4.20;;;2.70;;
22713;SDS011;11524;50.846;4.326;2023-03-01T06:47:04;4.35;;;3.08;;
22713;SDS011;11524;50.846;4.326;2023-03-01T06:49:30;7.75;;;3.38;;
22713;SDS011;11524;50.846;4.326;2023-03-01T06:51:56;4.20;;;2.75;;
22713;SDS011;11524;50.846;4.326;2023-03-01T06:54:22;5.35;;;2.92;;
22713;SDS011;11524;50.846;4.326;2023-03-01T06:56:48;4.50;;;3.20;;
22713;SDS011;11524;50.846;4.326;2023-03-01T06:59:15;4.32;;;2.38;;
22713;SDS011;11524;50.846;4.326;2023-03-01T07:01:41;5.80;;;2.38;;
22713;SDS011;11524;50.846;4.326;2023-03-01T07:04:07;5.53;;;2.58;;
22713;SDS011;11524;50.846;4.326;2023-03-01T07:06:32;5.50;;;2.60;;
22713;SDS011;11524;50.846;4.326;2023-03-01T07:08:58;7.40;;;3.22;;
22713;SDS011;11524;50.846;4.326;2023-03-01T07:11:24;7.38;;;2.50;;
22713;SDS011;11524;50.846;4.326;2023-03-01T07:13:50;8.02;;;2.65;;
22713;SDS011;11524;50.846;4.326;2023-03-01T07:16:15;7.25;;;3.10;;
22713;SDS011;11524;50.846;4.326;2023-03-01T07:18:41;5.78;;;2.97;;
22713;SDS011;11524;50.846;4.326;2023-03-01T07:21:07;9.75;;;2.85;;
22713;SDS011;11524;50.846;4.326;2023-03-01T07:23:34;5.45;;;3.00;;
22713;SDS011;11524;50.846;4.326;2023-03-01T07:25:59;3.83;;;2.42;;
22713;SDS011;11524;50.846;4.326;2023-03-01T07:28:26;7.40;;;3.60;;
22713;SDS011;11524;50.846;4.326;2023-03-01T07:30:52;8.63;;;3.15;;
22713;SDS011;11524;50.846;4.326;2023-03-01T07:33:18;4.60;;;2.70;;
22713;SDS011;11524;50.846;4.326;2023-03-01T07:35:46;7.20;;;2.60;;
22713;SDS011;11524;50.846;4.326;2023-03-01T07:38:11;8.32;;;2.95;;
22713;SDS011;11524;50.846;4.326;2023-03-01T07:40:37;5.53;;;2.58;;
22713;SDS011;11524;50.846;4.326;2023-03-01T07:43:03;7.45;;;2.65;;
22713;SDS011;11524;50.846;4.326;2023-03-01T07:45:30;5.95;;;2.70;;
22713;SDS011;11524;50.846;4.326;2023-03-01T07:47:56;7.75;;;2.75;;
22713;SDS011;11524;50.846;4.326;2023-03-01T07:50:22;3.15;;;2.13;;
22713;SDS011;11524;50.846;4.326;2023-03-01T07:52:48;6.75;;;2.90;;
22713;SDS011;11524;50.846;4.326;2023-03-01T07:55:14;4.95;;;2.70;;
22713;SDS011;11524;50.846;4.326;2023-03-01T07:57:41;5.65;;;3.08;;
22713;SDS011;11524;50.846;4.326;2023-03-01T08:00:08;3.47;;;2.70;;
22713;SDS011;11524;50.846;4.326;2023-03-01T08:02:36;4.82;;;2.92;;
22713;SDS011;11524;50.846;4.326;2023-03-01T08:05:02;3.97;;;2.95;;
22713;SDS011;11524;50.846;4.326;2023-03-01T08:07:27;7.45;;;3.50;;
22713;SDS011;11524;50.846;4.326;2023-03-01T08:09:53;9.27;;;5.78;;
22713;SDS011;11524;50.846;4.326;2023-03-01T08:12:18;4.85;;;3.58;;
22713;SDS011;11524;50.846;4.326;2023-03-01T08:14:44;5.50;;;4.20;;
22713;SDS011;11524;50.846;4.326;2023-03-01T08:17:10;3.80;;;3.08;;
22713;SDS011;11524;50.846;4.326;2023-03-01T08:19:35;6.20;;;2.90;;
22713;SDS011;11524;50.846;4.326;2023-03-01T08:22:01;3.85;;;2.88;;
22713;SDS011;11524;50.846;4.326;2023-03-01T08:24:28;3.17;;;2.45;;
22713;SDS011;11524;50.846;4.326;2023-03-01T08:26:54;3.17;;;2.53;;
22713;SDS011;11524;50.846;4.326;2023-03-01T08:29:20;4.55;;;2.63;;
22713;SDS011;11524;50.846;4.326;2023-03-01T08:31:46;4.68;;;2.85;;
22713;SDS011;11524;50.846;4.326;2023-03-01T08:34:13;4.35;;;2.50;;
22713;SDS011;11524;50.846;4.326;2023-03-01T08:36:45;3.67;;;2.38;;
22713;SDS011;11524;50.846;4.326;2023-03-01T08:39:12;3.85;;;2.60;;
22713;SDS011;11524;50.846;4.326;2023-03-01T08:41:40;4.93;;;2.65;;
22713;SDS011;11524;50.846;4.326;2023-03-01T08:44:07;4.07;;;2.40;;
22713;SDS011;11524;50.846;4.326;2023-03-01T08:46:37;4.45;;;2.40;;
22713;SDS011;11524;50.846;4.326;2023-03-01T08:49:10;3.35;;;2.53;;
22713;SDS011;11524;50.846;4.326;2023-03-01T08:52:06;4.40;;;2.38;;
22713;SDS011;11524;50.846;4.326;2023-03-01T08:54:32;3.17;;;2.38;;
22713;SDS011;11524;50.846;4.326;2023-03-01T08:56:57;3.55;;;2.70;;
22713;SDS011;11524;50.846;4.326;2023-03-01T08:59:27;4.28;;;2.40;;
22713;SDS011;11524;50.846;4.326;2023-03-01T09:01:54;3.85;;;2.30;;
22713;SDS011;11524;50.846;4.326;2023-03-01T09:04:20;2.67;;;2.40;;
22713;SDS011;11524;50.846;4.326;2023-03-01T09:06:46;3.20;;;2.33;;
22713;SDS011;11524;50.846;4.326;2023-03-01T09:09:14;4.05;;;2.60;;
22713;SDS011;11524;50.846;4.326;2023-03-01T09:11:41;4.38;;;2.58;;
22713;SDS011;11524;50.846;4.326;2023-03-01T09:14:08;4.60;;;2.65;;
22713;SDS011;11524;50.846;4.326;2023-03-01T09:16:34;3.65;;;2.80;;
22713;SDS011;11524;50.846;4.326;2023-03-01T09:19:01;3.88;;;2.72;;
22713;SDS011;11524;50.846;4.326;2023-03-01T09:21:29;4.95;;;2.30;;
22713;SDS011;11524;50.846;4.326;2023-03-01T09:23:59;4.43;;;2.45;;
22713;SDS011;11524;50.846;4.326;2023-03-01T09:26:26;3.65;;;2.50;;
22713;SDS011;11524;50.846;4.326;2023-03-01T09:28:54;3.30;;;2.30;;
22713;SDS011;11524;50.846;4.326;2023-03-01T09:31:24;3.97;;;3.10;;
22713;SDS011;11524;50.846;4.326;2023-03-01T09:33:50;5.05;;;3.25;;
22713;SDS011;11524;50.846;4.326;2023-03-01T09:36:18;4.00;;;2.20;;
22713;SDS011;11524;50.846;4.326;2023-03-01T09:38:46;4.65;;;3.10;;
22713;SDS011;11524;50.846;4.326;2023-03-01T09:41:25;3.90;;;2.60;;
22713;SDS011;11524;50.846;4.326;2023-03-01T09:46:55;2.55;;;2.20;;
22713;SDS011;11524;50.846;4.326;2023-03-01T09:50:17;3.17;;;2.55;;
22713;SDS011;11524;50.846;4.326;2023-03-01T09:53:13;2.97;;;2.67;;
22713;SDS011;11524;50.846;4.326;2023-03-01T10:01:30;3.70;;;2.95;;
22713;SDS011;11524;50.846;4.326;2023-03-01T10:06:41;3.13;;;2.53;;
22713;SDS011;11524;50.846;4.326;2023-03-01T10:09:16;3.58;;;2.40;;
22713;SDS011;11524;50.846;4.326;2023-03-01T10:11:52;5.30;;;3.40;;
22713;SDS011;11524;50.846;4.326;2023-03-01T10:20:53;4.20;;;3.20;;
22713;SDS011;11524;50.846;4.326;2023-03-01T10:23:23;5.13;;;2.90;;
22713;SDS011;11524;50.846;4.326;2023-03-01T10:31:37;3.25;;;2.55;;
22713;SDS011;11524;50.846;4.326;2023-03-01T10:34:28;3.97;;;3.17;;
22713;SDS011;11524;50.846;4.326;2023-03-01T10:37:13;3.35;;;2.30;;
22713;SDS011;11524;50.846;4.326;2023-03-01T10:42:39;4.20;;;2.67;;
22713;SDS011;11524;50.846;4.326;2023-03-01T10:45:26;3.35;;;2.60;;
22713;SDS011;11524;50.846;4.326;2023-03-01T10:48:11;3.70;;;2.43;;
22713;SDS011;11524;50.846;4.326;2023-03-01T10:50:42;4.22;;;2.80;;
22713;SDS011;11524;50.846;4.326;2023-03-01T10:56:04;3.38;;;2.55;;
22713;SDS011;11524;50.846;4.326;2023-03-01T10:58:31;4.13;;;3.30;;
22713;SDS011;11524;50.846;4.326;2023-03-01T11:00:59;4.95;;;3.10;;
22713;SDS011;11524;50.846;4.326;2023-03-01T11:08:44;3.95;;;2.92;;
22713;SDS011;11524;50.846;4.326;2023-03-01T11:16:32;3.47;;;2.85;;
22713;SDS011;11524;50.846;4.326;2023-03-01T11:24:18;4.43;;;2.97;;
22713;SDS011;11524;50.846;4.326;2023-03-01T11:26:51;2.95;;;2.55;;
22713;SDS011;11524;50.846;4.326;2023-03-01T11:29:26;3.50;;;2.88;;
22713;SDS011;11524;50.846;4.326;2023-03-01T11:32:00;4.25;;;2.60;;
22713;SDS011;11524;50.846;4.326;2023-03-01T11:34:49;5.68;;;3.10;;
22713;SDS011;11524;50.846;4.326;2023-03-01T11:37:28;3.08;;;2.78;;
22713;SDS011;11524;50.846;4.326;2023-03-01T11:48:27;3.83;;;3.10;;
22713;SDS011;11524;50.846;4.326;2023-03-01T11:51:05;2.70;;;2.35;;
22713;SDS011;11524;50.846;4.326;2023-03-01T11:56:41;4.55;;;2.45;;
22713;SDS011;11524;50.846;4.326;2023-03-01T12:04:59;5.22;;;2.83;;
22713;SDS011;11524;50.846;4.326;2023-03-01T12:10:15;3.95;;;2.65;;
22713;SDS011;11524;50.846;4.326;2023-03-01T12:16:07;4.22;;;2.53;;
22713;SDS011;11524;50.846;4.326;2023-03-01T12:25:08;5.45;;;2.35;;
22713;SDS011;11524;50.846;4.326;2023-03-01T12:27:36;4.22;;;2.70;;
22713;SDS011;11524;50.846;4.326;2023-03-01T12:33:16;4.32;;;3.03;;
22713;SDS011;11524;50.846;4.326;2023-03-01T12:50:17;4.97;;;2.60;;
22713;SDS011;11524;50.846;4.326;2023-03-01T12:52:47;3.75;;;2.75;;
22713;SDS011;11524;50.846;4.326;2023-03-01T12:55:29;4.65;;;3.08;;
22713;SDS011;11524;50.846;4.326;2023-03-01T12:58:31;3.95;;;2.58;;
22713;SDS011;11524;50.846;4.326;2023-03-01T13:01:36;3.00;;;2.60;;
22713;SDS011;11524;50.846;4.326;2023-03-01T13:10:52;3.72;;;2.53;;
22713;SDS011;11524;50.846;4.326;2023-03-01T13:13:28;4.82;;;3.15;;
22713;SDS011;11524;50.846;4.326;2023-03-01T13:15:55;4.90;;;3.00;;
22713;SDS011;11524;50.846;4.326;2023-03-01T13:20:54;5.18;;;3.40;;
22713;SDS011;11524;50.846;4.326;2023-03-01T13:34:41;4.80;;;2.47;;
22713;SDS011;11524;50.846;4.326;2023-03-01T13:37:23;6.20;;;3.10;;
22713;SDS011;11524;50.846;4.326;2023-03-01T13:39:57;5.72;;;3.00;;
22713;SDS011;11524;50.846;4.326;2023-03-01T13:44:58;6.63;;;3.40;;
22713;SDS011;11524;50.846;4.326;2023-03-01T13:47:25;6.38;;;4.07;;
22713;SDS011;11524;50.846;4.326;2023-03-01T13:49:56;6.60;;;3.90;;
22713;SDS011;11524;50.846;4.326;2023-03-01T13:55:25;7.95;;;3.75;;
22713;SDS011;11524;50.846;4.326;2023-03-01T13:58:18;7.35;;;3.50;;
22713;SDS011;11524;50.846;4.326;2023-03-01T14:01:05;7.25;;;3.80;;
22713;SDS011;11524;50.846;4.326;2023-03-01T14:03:34;5.38;;;3.63;;
22713;SDS011;11524;50.846;4.326;2023-03-01T14:06:46;4.90;;;2.92;;
22713;SDS011;11524;50.846;4.326;2023-03-01T14:09:17;6.07;;;3.17;;
22713;SDS011;11524;50.846;4.326;2023-03-01T14:12:23;7.03;;;3.45;;
22713;SDS011;11524;50.846;4.326;2023-03-01T14:15:49;5.68;;;3.28;;
22713;SDS011;11524;50.846;4.326;2023-03-01T14:19:05;6.32;;;3.30;;
22713;SDS011;11524;50.846;4.326;2023-03-01T14:21:42;5.07;;;2.75;;
22713;SDS011;11524;50.846;4.326;2023-03-01T14:24:18;4.68;;;2.88;;
22713;SDS011;11524;50.846;4.326;2023-03-01T14:26:46;5.45;;;3.33;;
22713;SDS011;11524;50.846;4.326;2023-03-01T14:29:23;5.90;;;3.30;;
22713;SDS011;11524;50.846;4.326;2023-03-01T14:32:09;4.93;;;3.13;;
22713;SDS011;11524;50.846;4.326;2023-03-01T14:34:48;7.95;;;3.22;;
22713;SDS011;11524;50.846;4.326;2023-03-01T14:37:19;5.35;;;3.15;;
22713;SDS011;11524;50.846;4.326;2023-03-01T14:39:59;6.13;;;3.00;;
22713;SDS011;11524;50.846;4.326;2023-03-01T14:42:29;6.63;;;3.38;;
22713;SDS011;11524;50.846;4.326;2023-03-01T14:44:59;5.32;;;3.08;;
22713;SDS011;11524;50.846;4.326;2023-03-01T14:47:32;3.97;;;3.10;;
22713;SDS011;11524;50.846;4.326;2023-03-01T14:52:50;4.10;;;2.80;;
22713;SDS011;11524;50.846;4.326;2023-03-01T14:57:49;8.35;;;2.97;;
22713;SDS011;11524;50.846;4.326;2023-03-01T15:00:23;5.40;;;3.25;;
22713;SDS011;11524;50.846;4.326;2023-03-01T15:02:54;5.47;;;3.75;;
22713;SDS011;11524;50.846;4.326;2023-03-01T15:05:39;6.10;;;3.63;;
22713;SDS011;11524;50.846;4.326;2023-03-01T15:08:06;6.25;;;3.78;;
22713;SDS011;11524;50.846;4.326;2023-03-01T15:10:39;5.80;;;3.03;;
22713;SDS011;11524;50.846;4.326;2023-03-01T15:15:46;4.30;;;2.80;;
22713;SDS011;11524;50.846;4.326;2023-03-01T15:20:51;4.20;;;3.30;;
22713;SDS011;11524;50.846;4.326;2023-03-01T15:23:19;5.97;;;3.90;;
22713;SDS011;11524;50.846;4.326;2023-03-01T15:25:48;5.95;;;3.40;;
22713;SDS011;11524;50.846;4.326;2023-03-01T15:28:28;5.30;;;3.40;;
22713;SDS011;11524;50.846;4.326;2023-03-01T15:31:04;4.95;;;3.28;;
22713;SDS011;11524;50.846;4.326;2023-03-01T15:33:43;3.65;;;2.65;;
22713;SDS011;11524;50.846;4.326;2023-03-01T15:38:57;4.25;;;3.20;;
22713;SDS011;11524;50.846;4.326;2023-03-01T15:41:30;5.10;;;3.28;;
22713;SDS011;11524;50.846;4.326;2023-03-01T15:44:16;4.35;;;2.88;;
22713;SDS011;11524;50.846;4.326;2023-03-01T15:46:46;4.65;;;3.33;;
22713;SDS011;11524;50.846;4.326;2023-03-01T15:52:04;5.90;;;3.80;;
22713;SDS011;11524;50.846;4.326;2023-03-01T15:54:38;4.72;;;3.10;;
22713;SDS011;11524;50.846;4.326;2023-03-01T15:57:08;5.68;;;3.67;;
22713;SDS011;11524;50.846;4.326;2023-03-01T15:59:40;5.55;;;4.10;;
22713;SDS011;11524;50.846;4.326;2023-03-01T16:02:10;5.50;;;3.10;;
22713;SDS011;11524;50.846;4.326;2023-03-01T16:04:37;5.22;;;3.35;;
22713;SDS011;11524;50.846;4.326;2023-03-01T16:07:03;6.28;;;3.78;;
22713;SDS011;11524;50.846;4.326;2023-03-01T16:09:29;5.32;;;3.60;;
22713;SDS011;11524;50.846;4.326;2023-03-01T16:11:54;4.72;;;2.95;;
22713;SDS011;11524;50.846;4.326;2023-03-01T16:14:20;4.78;;;3.47;;
22713;SDS011;11524;50.846;4.326;2023-03-01T16:16:46;5.43;;;3.38;;
22713;SDS011;11524;50.846;4.326;2023-03-01T16:19:15;6.53;;;3.17;;
22713;SDS011;11524;50.846;4.326;2023-03-01T16:21:41;4.45;;;3.17;;
22713;SDS011;11524;50.846;4.326;2023-03-01T16:24:11;4.47;;;3.10;;
22713;SDS011;11524;50.846;4.326;2023-03-01T16:26:38;5.85;;;3.60;;
22713;SDS011;11524;50.846;4.326;2023-03-01T16:29:03;4.47;;;3.05;;
22713;SDS011;11524;50.846;4.326;2023-03-01T16:31:29;4.55;;;3.35;;
22713;SDS011;11524;50.846;4.326;2023-03-01T16:33:56;5.70;;;3.50;;
22713;SDS011;11524;50.846;4.326;2023-03-01T16:36:23;5.28;;;3.42;;
22713;SDS011;11524;50.846;4.326;2023-03-01T16:38:50;3.97;;;3.50;;
22713;SDS011;11524;50.846;4.326;2023-03-01T16:41:17;4.90;;;3.55;;
22713;SDS011;11524;50.846;4.326;2023-03-01T16:43:46;4.32;;;3.08;;
22713;SDS011;11524;50.846;4.326;2023-03-01T16:46:13;3.88;;;3.28;;
22713;SDS011;11524;50.846;4.326;2023-03-01T16:48:44;5.82;;;3.67;;
22713;SDS011;11524;50.846;4.326;2023-03-01T16:51:10;4.53;;;3.22;;
22713;SDS011;11524;50.846;4.326;2023-03-01T16:53:36;5.38;;;3.55;;
22713;SDS011;11524;50.846;4.326;2023-03-01T16:56:03;4.80;;;3.40;;
22713;SDS011;11524;50.846;4.326;2023-03-01T16:58:31;5.50;;;3.25;;
22713;SDS011;11524;50.846;4.326;2023-03-01T17:01:01;4.55;;;2.85;;
22713;SDS011;11524;50.846;4.326;2023-03-01T17:03:38;3.85;;;3.38;;
22713;SDS011;11524;50.846;4.326;2023-03-01T17:06:05;3.92;;;3.20;;
22713;SDS011;11524;50.846;4.326;2023-03-01T17:08:36;5.28;;;3.28;;
22713;SDS011;11524;50.846;4.326;2023-03-01T17:13:34;7.28;;;3.80;;
22713;SDS011;11524;50.846;4.326;2023-03-01T17:16:02;4.88;;;3.35;;
22713;SDS011;11524;50.846;4.326;2023-03-01T17:18:29;3.90;;;2.80;;
22713;SDS011;11524;50.846;4.326;2023-03-01T17:20:54;4.97;;;2.80;;
22713;SDS011;11524;50.846;4.326;2023-03-01T17:23:20;4.70;;;3.33;;
22713;SDS011;11524;50.846;4.326;2023-03-01T17:25:46;4.15;;;3.40;;
22713;SDS011;11524;50.846;4.326;2023-03-01T17:28:12;5.32;;;3.33;;
22713;SDS011;11524;50.846;4.326;2023-03-01T17:30:46;4.15;;;3.33;;
22713;SDS011;11524;50.846;4.326;2023-03-01T17:33:12;5.78;;;3.45;;
22713;SDS011;11524;50.846;4.326;2023-03-01T17:35:38;4.68;;;3.13;;
22713;SDS011;11524;50.846;4.326;2023-03-01T17:38:04;5.55;;;3.70;;
22713;SDS011;11524;50.846;4.326;2023-03-01T17:40:30;5.78;;;3.40;;